Terminal Aerodrome Forecast
Issued by NWS

Home | Current Version | Previous Version | Text Only | Print | Product List | Glossary On
Versions: 1 2 3 4 5 6 7 8 9 10 11 12 13 14 15 16 17 18 19 20 21 22
000
FTUS46 KMFR 201300 AAA
TAFOTH
TAF AMD
KOTH 201340Z 2014/2112 02003KT 6SM BR SCT050 BKN070
     FM201800 34010KT P6SM FEW050 BKN070
     FM202000 35015G22KT P6SM SCT070
     FM210300 36010KT P6SM SCT007
     FM210600 15003KT 4SM BR BKN007=

USA.gov is the U.S. government's official web portal to all federal, state and local government web resources and services.